メインページ
METAR-TAF:

METAR-TAF

空港 :

キスム国際空港

キスム, ケニヤ

緯度: 00-06S, 経度: 034-45E, 海抜: 1157m

現時点の気象観測

当レポートは4時間11分前の22:00(UTC)に作成
無風
気温 20°C
湿度 88%
気圧 1019 hPa
視程10km以上
高度1800ftの雲はほとんどない, 積乱雲.
高度8000ftの千切れ雲あり

METAR: HKKI 142200Z 00000KT 9999 FEW018CB BKN080 20/18 Q1019

時間: 05:11 (02:11 UTC)

予報

当レポートは3時間11分前の23:00(UTC)に作成
予報は15日の 00時(UTC)から 15日の 24時(UTC)まで有効
東/北東の風 5kt
視程10km以上
高度2000ftの雲はほとんどない
高度8000ftの雲は散在している
15日の 08時(UTC)から 15日の 11時(UTC)まで徐々に
南西の風 10kt
高度2500ftの雲はほとんどない, 積乱雲.
高度2600ftの雲は散在している
15日の 12時(UTC)から 15日の 18時(UTC)まで一時的に
変向風 10kt
高度2100ftの雲はほとんどない, 積乱雲.
高度2200ftの千切れ雲あり
高度8000ftの千切れ雲あり
激しい雷雨, 小雨
15日の 20時(UTC)から 15日の 23時(UTC)まで徐々に
の風 5kt
高度2000ftの雲はほとんどない
高度8000ftの雲は散在している

TAF: HKKI 142300Z 1500/1524 06005KT 9999 FEW020 SCT080 BECMG 1508/1511 22010KT FEW025CB SCT026 TEMPO 1512/1518 VRB10KT -TSRA FEW021CB BKN022 BKN080 BECMG 1520/1523 08005KT NSW FEW020 SCT080

4,000以上の空港の気象観測と天気予報(METAR報とTAF報)

利用可能な観測所は地図上に黄色い丸と赤い丸で示す。

丸の上にカーソルを重ねると観測所名を参照できる。

次にクリックすると気象観測と天気予報を参照できる。

マップの切り替え:黒色「×」印の緑ボタンをクリックして拡大、「-」印の緑ボタンをクリックして縮小、緑色の三角印をクリックして隣りの地図に切り替え


METAR-TAF: